createdAt,value
2019-01-26T00:00:01.829Z,1.32
2019-01-26T00:02:31.699Z,1.27
2019-01-26T00:04:59.706Z,1.32
2019-01-26T00:07:27.905Z,1.30
2019-01-26T00:09:55.884Z,1.34
2019-01-26T00:12:23.954Z,1.24
2019-01-26T00:14:52.003Z,1.38
2019-01-26T00:17:20.962Z,1.38
2019-01-26T00:19:48.998Z,1.38
2019-01-26T00:22:17.095Z,1.41
2019-01-26T00:24:45.067Z,1.39
2019-01-26T00:27:13.067Z,1.40
2019-01-26T00:29:41.155Z,1.41
2019-01-26T00:32:09.109Z,1.34
2019-01-26T00:34:37.066Z,1.44
2019-01-26T00:37:05.086Z,1.39
2019-01-26T00:39:33.082Z,1.53
2019-01-26T00:42:01.081Z,1.52
2019-01-26T00:44:29.087Z,1.52
2019-01-26T00:46:57.057Z,1.44
2019-01-26T00:49:25.079Z,1.52
2019-01-26T00:51:53.089Z,1.49
2019-01-26T00:54:21.195Z,1.48
2019-01-26T00:56:49.194Z,1.48
2019-01-26T00:59:17.148Z,1.51
2019-01-26T01:01:46.214Z,1.27
2019-01-26T01:04:14.294Z,1.11
2019-01-26T01:06:42.261Z,1.14
2019-01-26T01:09:10.254Z,1.06
2019-01-26T01:11:38.532Z,0.96
2019-01-26T01:14:06.744Z,0.90
2019-01-26T01:16:35.918Z,0.91
2019-01-26T01:19:04.167Z,0.84
2019-01-26T01:21:32.116Z,0.81
2019-01-26T01:24:00.095Z,0.79
2019-01-26T01:26:28.304Z,0.81
2019-01-26T01:28:56.359Z,0.75
2019-01-26T01:31:24.355Z,0.68
2019-01-26T01:33:52.418Z,0.77
2019-01-26T01:36:20.466Z,0.78
2019-01-26T01:38:48.476Z,0.76
2019-01-26T01:41:16.698Z,0.64
2019-01-26T01:43:44.674Z,0.76
2019-01-26T01:46:12.594Z,0.82
2019-01-26T01:48:40.641Z,0.86
2019-01-26T01:51:08.815Z,0.87
2019-01-26T01:53:36.811Z,0.80
2019-01-26T01:56:04.982Z,0.84
2019-01-26T01:58:33.019Z,0.80
2019-01-26T02:01:01.002Z,0.91
2019-01-26T02:03:29.256Z,0.87
2019-01-26T02:05:57.387Z,0.83
2019-01-26T02:08:25.434Z,0.86
2019-01-26T02:10:53.546Z,0.86
2019-01-26T02:13:21.528Z,0.87
2019-01-26T02:15:49.562Z,0.73
2019-01-26T02:18:17.585Z,0.72
2019-01-26T02:20:45.632Z,0.65
2019-01-26T02:23:13.766Z,0.74
2019-01-26T02:25:41.989Z,0.69
2019-01-26T02:28:10.029Z,0.74
2019-01-26T02:30:38.334Z,0.78
2019-01-26T02:33:06.292Z,0.71
2019-01-26T02:35:34.271Z,0.87
2019-01-26T02:38:02.629Z,0.97
2019-01-26T02:40:31.198Z,0.97
2019-01-26T02:42:59.174Z,0.93
2019-01-26T02:45:27.094Z,0.98
2019-01-26T02:47:55.334Z,1.04
2019-01-26T02:50:23.293Z,1.09
2019-01-26T02:52:51.498Z,1.11
2019-01-26T02:55:19.421Z,1.20
2019-01-26T02:57:47.453Z,1.30
2019-01-26T03:00:18.827Z,1.26
2019-01-26T03:02:46.822Z,1.38
2019-01-26T03:05:14.779Z,1.37
2019-01-26T03:07:42.745Z,1.30
2019-01-26T03:10:13.272Z,1.43
2019-01-26T03:12:41.298Z,1.54
2019-01-26T03:15:11.407Z,1.58
2019-01-26T03:17:39.464Z,1.56
2019-01-26T03:20:09.341Z,1.60
2019-01-26T03:22:37.331Z,1.74
2019-01-26T03:25:06.041Z,1.63
2019-01-26T03:27:34.014Z,1.71
2019-01-26T03:30:01.980Z,1.63
2019-01-26T03:32:29.983Z,1.66
2019-01-26T03:34:57.876Z,1.74
2019-01-26T03:37:25.908Z,1.74
2019-01-26T03:39:53.920Z,1.90
2019-01-26T03:42:22.407Z,1.94
2019-01-26T03:44:50.649Z,1.85
2019-01-26T03:47:18.615Z,1.88
2019-01-26T03:49:46.542Z,1.92
2019-01-26T03:52:15.352Z,2.04
2019-01-26T03:54:44.182Z,1.97
2019-01-26T03:57:12.208Z,2.03
2019-01-26T03:59:40.119Z,2.13
2019-01-26T04:02:08.102Z,2.26
2019-01-26T04:04:40.080Z,2.29
2019-01-26T04:07:09.514Z,2.24
2019-01-26T04:09:37.890Z,2.28
2019-01-26T04:12:06.131Z,2.38
2019-01-26T04:14:34.288Z,2.28
2019-01-26T04:17:02.242Z,2.25
2019-01-26T04:19:31.497Z,2.34
2019-01-26T04:21:59.537Z,2.42
2019-01-26T04:24:27.579Z,2.49
2019-01-26T04:26:55.551Z,2.48
2019-01-26T04:29:23.527Z,2.66
2019-01-26T04:31:51.539Z,2.59
2019-01-26T04:34:19.670Z,2.55
2019-01-26T04:36:47.974Z,2.67
2019-01-26T04:39:16.065Z,2.81
2019-01-26T04:41:45.362Z,2.77
2019-01-26T04:44:13.339Z,2.70
2019-01-26T04:46:41.372Z,2.83
2019-01-26T04:49:09.612Z,2.92
2019-01-26T04:51:37.719Z,2.99
2019-01-26T04:54:05.717Z,2.94
2019-01-26T04:56:33.947Z,3.03
2019-01-26T04:59:01.896Z,2.98
2019-01-26T05:01:30.374Z,3.03
2019-01-26T05:03:59.195Z,3.05
2019-01-26T05:06:27.164Z,3.07
2019-01-26T05:08:55.116Z,3.10
2019-01-26T05:11:23.146Z,3.18
2019-01-26T05:13:51.744Z,3.18
2019-01-26T05:16:19.892Z,3.16
2019-01-26T05:18:48.616Z,3.16
2019-01-26T05:21:17.173Z,3.16
2019-01-26T05:23:45.651Z,3.24
2019-01-26T05:26:14.174Z,3.28
2019-01-26T05:28:42.427Z,3.21
2019-01-26T05:31:10.382Z,3.22
2019-01-26T05:33:38.363Z,3.18
2019-01-26T05:36:06.570Z,3.17
2019-01-26T05:38:34.549Z,3.16
2019-01-26T05:41:02.720Z,3.16
2019-01-26T05:43:30.651Z,3.17
2019-01-26T05:45:58.630Z,3.21
2019-01-26T05:48:26.552Z,3.31
2019-01-26T05:50:54.488Z,3.25
2019-01-26T05:53:22.473Z,3.27
2019-01-26T05:55:50.423Z,3.46
2019-01-26T05:58:18.401Z,3.53
2019-01-26T06:00:46.454Z,3.49
2019-01-26T06:03:14.681Z,3.39
2019-01-26T06:05:42.734Z,3.43
2019-01-26T06:08:10.928Z,3.49
2019-01-26T06:10:38.876Z,3.42
2019-01-26T06:13:06.808Z,3.51
2019-01-26T06:15:34.762Z,3.51
2019-01-26T06:18:02.728Z,3.53
2019-01-26T06:20:30.928Z,3.62
2019-01-26T06:23:01.009Z,3.56
2019-01-26T06:25:30.193Z,3.55
2019-01-26T06:27:59.425Z,3.66
2019-01-26T06:30:27.433Z,3.76
2019-01-26T06:32:55.436Z,3.74
2019-01-26T06:35:23.431Z,3.70
2019-01-26T06:37:51.427Z,3.83
2019-01-26T06:40:19.892Z,3.82
2019-01-26T06:42:47.837Z,3.82
2019-01-26T06:45:17.816Z,3.92
2019-01-26T06:47:45.784Z,3.84
2019-01-26T06:50:20.716Z,3.90
2019-01-26T06:52:49.290Z,3.96
2019-01-26T06:55:18.347Z,3.98
2019-01-26T06:57:46.295Z,3.95
2019-01-26T07:00:17.453Z,3.94
2019-01-26T07:02:45.423Z,3.99
2019-01-26T07:05:32.958Z,3.98
2019-01-26T07:08:00.969Z,3.98
2019-01-26T07:10:28.935Z,4.01
2019-01-26T07:12:56.912Z,3.96
2019-01-26T07:15:24.981Z,4.01
2019-01-26T07:17:52.973Z,4.05
2019-01-26T07:20:20.933Z,4.05
2019-01-26T07:22:49.147Z,4.12
2019-01-26T07:25:17.314Z,4.03
2019-01-26T07:27:45.500Z,4.23
2019-01-26T07:30:16.494Z,4.13
2019-01-26T07:32:44.661Z,4.23
2019-01-26T07:35:12.618Z,4.28
2019-01-26T07:37:40.622Z,4.28
2019-01-26T07:40:13.435Z,4.30
2019-01-26T07:42:41.424Z,4.33
2019-01-26T07:45:10.088Z,4.34
2019-01-26T07:47:38.033Z,4.30
2019-01-26T07:50:09.007Z,4.44
2019-01-26T07:52:37.276Z,4.37
2019-01-26T07:55:06.596Z,4.48
2019-01-26T07:57:34.760Z,4.47
2019-01-26T08:00:03.505Z,4.41
2019-01-26T08:02:31.832Z,4.49
2019-01-26T08:04:59.895Z,4.55
2019-01-26T08:07:27.888Z,4.69
2019-01-26T08:09:56.031Z,4.64
2019-01-26T08:12:23.986Z,4.70
2019-01-26T08:14:52.217Z,4.71
2019-01-26T08:17:20.835Z,4.74
2019-01-26T08:19:49.063Z,4.85
2019-01-26T08:22:20.051Z,4.96
2019-01-26T08:24:48.112Z,5.00
2019-01-26T08:27:16.354Z,4.99
2019-01-26T08:29:45.635Z,5.11
2019-01-26T08:32:13.649Z,5.19
2019-01-26T08:34:41.876Z,5.14
2019-01-26T08:37:10.045Z,5.06
2019-01-26T08:39:38.058Z,5.15
2019-01-26T08:42:06.046Z,5.31
2019-01-26T08:44:34.073Z,5.27
2019-01-26T08:47:02.031Z,5.16
2019-01-26T08:49:30.263Z,5.13
2019-01-26T08:51:58.481Z,5.07
2019-01-26T08:54:26.443Z,5.32
2019-01-26T08:56:54.417Z,5.31
2019-01-26T08:59:23.262Z,5.45
2019-01-26T09:01:56.937Z,5.43
2019-01-26T09:04:28.655Z,5.46
2019-01-26T09:06:59.975Z,5.45
2019-01-26T09:09:29.120Z,5.43
2019-01-26T09:11:57.120Z,5.60
2019-01-26T09:14:25.124Z,5.66
2019-01-26T09:16:53.289Z,5.83
2019-01-26T09:19:21.320Z,5.59
2019-01-26T09:21:49.534Z,5.62
2019-01-26T09:24:17.563Z,5.49
2019-01-26T09:26:45.683Z,5.50
2019-01-26T09:29:13.708Z,5.36
2019-01-26T09:31:41.761Z,5.48
2019-01-26T09:34:09.803Z,5.58
2019-01-26T09:36:38.503Z,5.60
2019-01-26T09:39:10.603Z,5.34
2019-01-26T09:41:39.447Z,5.48
2019-01-26T09:44:08.127Z,5.41
2019-01-26T09:46:36.145Z,5.62
2019-01-26T09:49:04.845Z,5.60
2019-01-26T09:51:33.222Z,5.82
2019-01-26T09:54:01.446Z,6.02
2019-01-26T09:56:29.805Z,6.20
2019-01-26T09:58:58.159Z,6.33
2019-01-26T10:01:28.335Z,6.33
2019-01-26T10:03:57.175Z,6.26
2019-01-26T10:06:25.392Z,6.23
2019-01-26T10:08:53.473Z,6.38
2019-01-26T10:11:21.934Z,6.77
2019-01-26T10:13:50.047Z,6.68
2019-01-26T10:16:18.226Z,6.38
2019-01-26T10:18:46.209Z,6.41
2019-01-26T10:21:14.662Z,6.37
2019-01-26T10:23:42.703Z,6.52
2019-01-26T10:26:14.277Z,6.59
2019-01-26T10:28:42.660Z,6.72
2019-01-26T10:31:11.116Z,6.98
2019-01-26T10:33:39.116Z,7.04
2019-01-26T10:36:19.845Z,7.38
2019-01-26T10:38:58.370Z,7.54
2019-01-26T10:41:33.927Z,7.65
2019-01-26T10:44:03.265Z,7.55
2019-01-26T10:46:31.220Z,7.43
2019-01-26T10:49:00.839Z,7.63
2019-01-26T10:51:30.016Z,7.81
2019-01-26T10:53:58.105Z,8.51
2019-01-26T10:56:26.110Z,8.57
2019-01-26T10:58:54.360Z,8.49
2019-01-26T11:01:22.443Z,8.55
2019-01-26T11:03:51.937Z,8.57
2019-01-26T11:06:19.901Z,8.71
2019-01-26T11:08:47.926Z,8.30
2019-01-26T11:11:16.147Z,8.38
2019-01-26T11:13:44.165Z,8.47
2019-01-26T11:16:12.138Z,8.16
2019-01-26T11:18:40.251Z,7.97
2019-01-26T11:21:08.308Z,8.01
2019-01-26T11:23:36.294Z,8.44
2019-01-26T11:26:05.307Z,8.49
2019-01-26T11:28:33.242Z,8.35
2019-01-26T11:31:01.433Z,8.33
2019-01-26T11:33:29.457Z,8.70
2019-01-26T11:35:57.552Z,9.12
2019-01-26T11:38:26.147Z,9.31
2019-01-26T11:40:54.434Z,9.61
2019-01-26T11:43:25.433Z,10.08
2019-01-26T11:46:12.139Z,9.83
2019-01-26T11:48:43.027Z,9.48
2019-01-26T11:51:22.288Z,9.46
2019-01-26T11:53:50.284Z,9.65
2019-01-26T11:56:33.062Z,9.62
2019-01-26T11:59:01.073Z,9.27
2019-01-26T12:01:38.774Z,9.49
2019-01-26T12:04:18.215Z,9.13
2019-01-26T12:06:57.072Z,8.96
2019-01-26T12:09:25.052Z,9.36
2019-01-26T12:11:53.159Z,9.24
2019-01-26T12:14:21.251Z,9.10
2019-01-26T12:16:49.293Z,9.06
2019-01-26T12:19:22.295Z,8.73
2019-01-26T12:21:47.338Z,8.68
2019-01-26T12:24:15.314Z,8.75
2019-01-26T12:26:43.496Z,8.41
2019-01-26T12:29:11.692Z,8.54
2019-01-26T12:31:39.745Z,8.63
2019-01-26T12:34:07.841Z,8.95
2019-01-26T12:36:35.964Z,9.06
2019-01-26T12:39:09.004Z,9.07
2019-01-26T12:41:36.973Z,8.89
2019-01-26T12:44:04.982Z,8.55
2019-01-26T12:46:33.048Z,8.94
2019-01-26T12:49:01.158Z,8.69
2019-01-26T12:51:29.446Z,8.70
2019-01-26T12:53:57.466Z,8.96
2019-01-26T12:56:26.535Z,8.73
2019-01-26T12:58:54.647Z,9.18
2019-01-26T13:01:22.847Z,9.54
2019-01-26T13:03:51.110Z,10.08
2019-01-26T13:06:19.179Z,9.35
2019-01-26T13:08:47.187Z,8.86
2019-01-26T13:11:22.678Z,8.60
2019-01-26T13:13:51.997Z,8.24
2019-01-26T13:16:20.200Z,8.19
2019-01-26T13:18:48.264Z,8.47
2019-01-26T13:21:16.257Z,8.96
2019-01-26T13:23:44.238Z,8.67
2019-01-26T13:26:12.180Z,8.71
2019-01-26T13:28:41.186Z,8.60
2019-01-26T13:31:09.274Z,8.50
2019-01-26T13:33:37.275Z,8.36
2019-01-26T13:36:06.038Z,8.53
2019-01-26T13:38:34.075Z,8.85
2019-01-26T13:41:02.152Z,10.05
2019-01-26T13:43:30.783Z,10.77
2019-01-26T13:45:58.848Z,10.23
2019-01-26T13:48:27.526Z,9.48
2019-01-26T13:50:55.736Z,9.01
2019-01-26T13:53:23.955Z,8.68
2019-01-26T13:55:51.953Z,8.13
2019-01-26T13:58:20.081Z,8.22
2019-01-26T14:00:49.125Z,8.17
2019-01-26T14:03:17.144Z,8.09
2019-01-26T14:05:45.146Z,7.97
2019-01-26T14:08:13.213Z,7.82
2019-01-26T14:10:41.650Z,7.97
2019-01-26T14:13:09.861Z,7.63
2019-01-26T14:15:37.863Z,7.45
2019-01-26T14:18:05.968Z,7.48
2019-01-26T14:20:33.907Z,7.28
2019-01-26T14:23:02.074Z,7.08
2019-01-26T14:25:30.209Z,7.05
2019-01-26T14:27:58.405Z,6.99
2019-01-26T14:30:36.403Z,7.06
2019-01-26T14:33:04.726Z,7.02
2019-01-26T14:35:32.743Z,6.98
2019-01-26T14:38:00.656Z,6.95
2019-01-26T14:40:28.612Z,6.97
2019-01-26T14:42:56.642Z,7.02
2019-01-26T14:45:24.747Z,7.00
2019-01-26T14:47:52.733Z,7.10
2019-01-26T14:50:20.812Z,7.16
2019-01-26T14:52:48.880Z,7.39
2019-01-26T14:55:19.441Z,7.29
2019-01-26T14:57:47.707Z,7.21
2019-01-26T15:00:20.499Z,7.23
2019-01-26T15:02:49.927Z,7.29
2019-01-26T15:05:18.204Z,7.01
2019-01-26T15:07:47.520Z,6.93
2019-01-26T15:10:15.552Z,6.98
2019-01-26T15:12:43.552Z,6.86
2019-01-26T15:15:11.882Z,6.83
2019-01-26T15:17:40.236Z,6.77
2019-01-26T15:20:15.550Z,6.64
2019-01-26T15:22:43.765Z,6.66
2019-01-26T15:25:11.748Z,6.71
2019-01-26T15:27:39.770Z,6.70
2019-01-26T15:30:19.159Z,6.55
2019-01-26T15:32:47.196Z,6.44
2019-01-26T15:35:15.183Z,6.49
2019-01-26T15:37:43.459Z,6.43
2019-01-26T15:40:11.817Z,6.52
2019-01-26T15:42:39.851Z,6.40
2019-01-26T15:45:13.148Z,6.52
2019-01-26T15:47:41.083Z,6.51
2019-01-26T15:50:13.209Z,6.61
2019-01-26T15:52:40.327Z,6.65
2019-01-26T15:55:12.741Z,6.51
2019-01-26T15:57:40.805Z,6.48
2019-01-26T16:00:25.334Z,6.51
2019-01-26T16:02:53.566Z,6.55
2019-01-26T16:05:21.627Z,6.42
2019-01-26T16:07:49.653Z,6.53
2019-01-26T16:10:19.783Z,6.43
2019-01-26T16:12:47.789Z,6.45
2019-01-26T16:15:18.805Z,6.41
2019-01-26T16:17:46.828Z,6.44
2019-01-26T16:20:20.278Z,6.46
2019-01-26T16:22:45.423Z,6.48
2019-01-26T16:25:13.607Z,6.49
2019-01-26T16:27:41.619Z,6.48
2019-01-26T16:30:16.916Z,6.40
2019-01-26T16:32:44.989Z,6.41
2019-01-26T16:35:13.545Z,6.31
2019-01-26T16:37:41.886Z,6.33
2019-01-26T16:40:13.727Z,6.40
2019-01-26T16:42:41.798Z,6.42
2019-01-26T16:45:14.553Z,6.39
2019-01-26T16:47:42.803Z,6.31
2019-01-26T16:50:15.788Z,6.29
2019-01-26T16:52:43.938Z,6.33
2019-01-26T16:55:12.147Z,6.27
2019-01-26T16:57:40.151Z,6.32
2019-01-26T17:00:36.083Z,6.32
2019-01-26T17:03:04.203Z,6.33
2019-01-26T17:05:32.141Z,6.18
2019-01-26T17:08:00.500Z,6.20
2019-01-26T17:10:34.178Z,6.25
2019-01-26T17:12:59.684Z,6.18
2019-01-26T17:15:27.624Z,6.19
2019-01-26T17:17:55.669Z,6.21
2019-01-26T17:20:26.163Z,6.24
2019-01-26T17:22:55.349Z,6.21
2019-01-26T17:25:23.304Z,6.18
2019-01-26T17:27:52.517Z,6.12
2019-01-26T17:30:24.531Z,6.16
2019-01-26T17:32:52.497Z,6.18
2019-01-26T17:35:21.533Z,6.08
2019-01-26T17:37:50.015Z,5.99
2019-01-26T17:40:19.584Z,5.97
2019-01-26T17:42:50.292Z,5.90
2019-01-26T17:45:18.473Z,5.90
2019-01-26T17:47:46.682Z,5.97
2019-01-26T17:50:17.215Z,6.03
2019-01-26T17:52:45.335Z,6.03
2019-01-26T17:55:13.692Z,6.10
2019-01-26T17:57:41.652Z,6.02
2019-01-26T18:00:14.883Z,6.03
2019-01-26T18:02:44.157Z,6.02
2019-01-26T18:05:12.191Z,6.04
2019-01-26T18:07:40.708Z,6.05
2019-01-26T18:10:12.765Z,6.00
2019-01-26T18:12:40.765Z,5.98
2019-01-26T18:15:10.759Z,5.93
2019-01-26T18:17:38.800Z,5.97
2019-01-26T18:20:10.538Z,5.97
2019-01-26T18:22:38.499Z,6.00
2019-01-26T18:25:06.557Z,6.10
2019-01-26T18:27:34.698Z,6.15
2019-01-26T18:30:02.810Z,6.10
2019-01-26T18:32:32.051Z,6.10
2019-01-26T18:35:00.047Z,6.05
2019-01-26T18:37:28.668Z,6.13
2019-01-26T18:39:56.771Z,6.14
2019-01-26T18:42:24.948Z,6.18
2019-01-26T18:44:53.293Z,6.12
2019-01-26T18:47:21.308Z,6.17
2019-01-26T18:49:49.537Z,6.19
2019-01-26T18:52:17.575Z,6.19
2019-01-26T18:54:45.574Z,6.13
2019-01-26T18:57:14.568Z,6.14
2019-01-26T18:59:42.651Z,6.10
2019-01-26T19:02:10.657Z,5.98
2019-01-26T19:04:55.280Z,6.06
2019-01-26T19:07:23.465Z,6.10
2019-01-26T19:09:52.455Z,6.08
2019-01-26T19:12:20.611Z,6.09
2019-01-26T19:14:48.558Z,6.10
2019-01-26T19:17:16.512Z,6.01
2019-01-26T19:19:44.499Z,6.03
2019-01-26T19:22:13.896Z,6.01
2019-01-26T19:24:41.991Z,6.10
2019-01-26T19:27:09.964Z,6.05
2019-01-26T19:29:37.986Z,6.08
2019-01-26T19:32:06.507Z,6.07
2019-01-26T19:34:34.494Z,6.02
2019-01-26T19:37:09.125Z,6.03
2019-01-26T19:39:32.939Z,6.04
2019-01-26T19:42:00.893Z,6.03
2019-01-26T19:44:28.849Z,6.05
2019-01-26T19:46:57.140Z,6.01
2019-01-26T19:49:25.400Z,5.93
2019-01-26T19:51:53.329Z,5.90
2019-01-26T19:54:21.306Z,5.90
2019-01-26T19:56:49.357Z,5.87
2019-01-26T19:59:17.541Z,5.83
2019-01-26T20:01:45.572Z,5.87
2019-01-26T20:04:14.274Z,5.79
2019-01-26T20:06:42.409Z,5.84
2019-01-26T20:09:10.851Z,5.71
2019-01-26T20:11:39.058Z,5.66
2019-01-26T20:14:07.240Z,5.73
2019-01-26T20:16:36.514Z,5.75
2019-01-26T20:19:05.294Z,5.91
2019-01-26T20:21:34.382Z,5.82
2019-01-26T20:24:06.917Z,5.75
2019-01-26T20:26:35.108Z,5.82
2019-01-26T20:29:03.259Z,5.68
2019-01-26T20:31:31.838Z,5.64
2019-01-26T20:33:59.951Z,5.67
2019-01-26T20:36:28.114Z,5.61
2019-01-26T20:38:56.218Z,5.48
2019-01-26T20:41:24.365Z,5.50
2019-01-26T20:43:53.011Z,5.46
2019-01-26T20:46:21.094Z,5.36
2019-01-26T20:48:49.209Z,5.40
2019-01-26T20:51:17.459Z,5.36
2019-01-26T20:53:45.549Z,5.41
2019-01-26T20:56:13.693Z,5.37
2019-01-26T20:58:41.865Z,5.31
2019-01-26T21:01:09.902Z,5.31
2019-01-26T21:03:38.190Z,5.36
2019-01-26T21:06:06.249Z,5.33
2019-01-26T21:08:34.745Z,5.27
2019-01-26T21:11:03.090Z,5.28
2019-01-26T21:13:31.818Z,5.34
2019-01-26T21:16:00.267Z,5.34
2019-01-26T21:18:28.954Z,5.29
2019-01-26T21:20:57.318Z,5.23
2019-01-26T21:23:25.281Z,5.18
2019-01-26T21:25:53.379Z,5.25
2019-01-26T21:28:21.406Z,5.36
2019-01-26T21:30:49.525Z,5.30
2019-01-26T21:33:17.993Z,5.22
2019-01-26T21:35:46.479Z,5.21
2019-01-26T21:38:15.211Z,5.30
2019-01-26T21:40:43.468Z,5.32
2019-01-26T21:43:11.491Z,5.37
2019-01-26T21:45:39.799Z,5.33
2019-01-26T21:48:08.349Z,5.36
2019-01-26T21:50:36.447Z,5.46
2019-01-26T21:53:04.489Z,5.57
2019-01-26T21:55:32.654Z,5.57
2019-01-26T21:58:01.075Z,5.51
2019-01-26T22:00:33.274Z,5.56
2019-01-26T22:03:01.941Z,5.59
2019-01-26T22:05:31.602Z,5.60
2019-01-26T22:07:59.710Z,5.64
2019-01-26T22:10:28.505Z,5.65
2019-01-26T22:12:56.876Z,5.65
2019-01-26T22:15:25.664Z,5.75
2019-01-26T22:17:53.840Z,5.75
2019-01-26T22:20:24.471Z,5.77
2019-01-26T22:22:52.704Z,5.84
2019-01-26T22:25:21.337Z,5.82
2019-01-26T22:27:49.551Z,5.79
2019-01-26T22:30:32.501Z,5.89
2019-01-26T22:33:00.512Z,5.90
2019-01-26T22:35:29.557Z,5.85
2019-01-26T22:37:58.216Z,5.90
2019-01-26T22:40:30.754Z,5.81
2019-01-26T22:42:59.981Z,5.81
2019-01-26T22:45:28.320Z,5.88
2019-01-26T22:47:56.369Z,5.78
2019-01-26T22:50:24.886Z,5.76
2019-01-26T22:52:53.169Z,5.89
2019-01-26T22:55:23.118Z,5.92
2019-01-26T22:57:51.190Z,5.95
2019-01-26T23:00:52.623Z,5.99
2019-01-26T23:04:32.873Z,6.12
2019-01-26T23:07:39.040Z,6.06
2019-01-26T23:10:52.178Z,6.01
2019-01-26T23:14:02.632Z,5.97
2019-01-26T23:17:44.245Z,5.84
2019-01-26T23:20:56.434Z,5.81
2019-01-26T23:24:21.280Z,5.84
2019-01-26T23:27:45.716Z,5.86
2019-01-26T23:30:54.336Z,5.99
2019-01-26T23:33:22.332Z,6.03
2019-01-26T23:35:50.808Z,5.82
2019-01-26T23:38:18.979Z,5.80
2019-01-26T23:40:46.967Z,5.70
2019-01-26T23:43:15.379Z,5.70
2019-01-26T23:45:43.407Z,5.75
2019-01-26T23:48:11.368Z,5.73
2019-01-26T23:50:39.401Z,5.65
2019-01-26T23:53:07.610Z,5.68
2019-01-26T23:55:35.705Z,5.59
2019-01-26T23:58:03.842Z,5.66
